19.5°F
Current conditions from King Hill
Updated every 5 minutes
 
  Saturday November 22, 2014

Station Historical Data
Daily Summary for January 13, 2012 Units:  Both    English   Metric
« Previous Day
Next Day »
Daily Weekly Monthly Yearly Custom
  High: Low: Average:
Temperature: 39.4 °F /  4.1 °C 20.5 °F /  -6.4 °C 30.5 °F /  -0.8 °C
Dew Point: 34.6 °F /  1.4 °C 17.2 °F /  -8.2 °C 27.2 °F /  -2.7 °C
Humidity: 92% 78% 88%
Wind Speed: 14.0mph /  22.5km/h - 5.4mph /  8.7km/h
Wind Gust: 26.0mph /  41.8km/h - -
Wind- - SW
Pressure: 29.51 in /  999.2 hPa 29.01 in /  982.3 hPa -
Precipitation: 0.00 in /  0 mm    
Historical Graphs
 
 
Tabular Data for January 13, 2012
Time Temperature Dew Point Pressure Wind Wind Speed Wind Gust Humidity Daily Rainfall
00:00 32.9 °F /  0.5 °C 28.3 °F /  -2.1 °C 29.42in /  996.2hPa SSW 1.0mph /  1.6km/h 8.0mph /  12.9km/h 83% 0.00in /  0mm
00:05 32.9 °F /  0.5 °C 28.3 °F /  -2.1 °C 29.41in /  995.8hPa SSW 3.0mph /  4.8km/h 8.0mph /  12.9km/h 83% 0.00in /  0mm
00:10 32.8 °F /  0.4 °C 28.2 °F /  -2.1 °C 29.42in /  996.2hPa SSW 4.0mph /  6.4km/h 12.0mph /  19.3km/h 83% 0.00in /  0mm
00:15 32.8 °F /  0.4 °C 28.5 °F /  -1.9 °C 29.42in /  996.2hPa SSW 4.0mph /  6.4km/h 12.0mph /  19.3km/h 84% 0.00in /  0mm
00:20 32.8 °F /  0.4 °C 28.2 °F /  -2.1 °C 29.42in /  996.2hPa SSW 3.0mph /  4.8km/h 8.0mph /  12.9km/h 83% 0.00in /  0mm
00:25 32.8 °F /  0.4 °C 28.5 °F /  -1.9 °C 29.41in /  995.8hPa SW 2.0mph /  3.2km/h 8.0mph /  12.9km/h 84% 0.00in /  0mm
00:30 32.8 °F /  0.4 °C 28.5 °F /  -1.9 °C 29.41in /  995.8hPa SSW 4.0mph /  6.4km/h 8.0mph /  12.9km/h 84% 0.00in /  0mm
00:35 32.8 °F /  0.4 °C 28.5 °F /  -1.9 °C 29.41in /  995.8hPa SSW 4.0mph /  6.4km/h 7.0mph /  11.3km/h 84% 0.00in /  0mm
00:40 32.8 °F /  0.4 °C 28.5 °F /  -1.9 °C 29.40in /  995.5hPa South 2.0mph /  3.2km/h 7.0mph /  11.3km/h 84% 0.00in /  0mm
00:45 32.9 °F /  0.5 °C 28.6 °F /  -1.9 °C 29.40in /  995.5hPa South 3.0mph /  4.8km/h 8.0mph /  12.9km/h 84% 0.00in /  0mm
00:50 33.0 °F /  0.6 °C 28.7 °F /  -1.8 °C 29.40in /  995.5hPa SSW 2.0mph /  3.2km/h 8.0mph /  12.9km/h 84% 0.00in /  0mm
00:55 33.2 °F /  0.7 °C 28.6 °F /  -1.9 °C 29.39in /  995.1hPa SSW 4.0mph /  6.4km/h 9.0mph /  14.5km/h 83% 0.00in /  0mm
01:00 33.4 °F /  0.8 °C 28.8 °F /  -1.8 °C 29.39in /  995.1hPa South 6.0mph /  9.7km/h 12.0mph /  19.3km/h 83% 0.00in /  0mm
01:05 33.5 °F /  0.8 °C 28.9 °F /  -1.7 °C 29.39in /  995.1hPa South 5.0mph /  8km/h 12.0mph /  19.3km/h 83% 0.00in /  0mm
01:10 33.6 °F /  0.9 °C 28.7 °F /  -1.8 °C 29.39in /  995.1hPa SSW 4.0mph /  6.4km/h 11.0mph /  17.7km/h 82% 0.00in /  0mm
01:15 33.6 °F /  0.9 °C 29.0 °F /  -1.7 °C 29.39in /  995.1hPa SSW 6.0mph /  9.7km/h 12.0mph /  19.3km/h 83% 0.00in /  0mm
01:20 33.6 °F /  0.9 °C 29.0 °F /  -1.7 °C 29.40in /  995.5hPa SSW 2.0mph /  3.2km/h 12.0mph /  19.3km/h 83% 0.00in /  0mm
01:25 33.7 °F /  0.9 °C 29.1 °F /  -1.6 °C 29.40in /  995.5hPa SSW 6.0mph /  9.7km/h 13.0mph /  20.9km/h 83% 0.00in /  0mm
01:30 33.8 °F /  1 °C 29.2 °F /  -1.6 °C 29.40in /  995.5hPa SSW 5.0mph /  8km/h 14.0mph /  22.5km/h 83% 0.00in /  0mm
01:35 33.8 °F /  1 °C 29.2 °F /  -1.6 °C 29.40in /  995.5hPa SSW 7.0mph /  11.3km/h 14.0mph /  22.5km/h 83% 0.00in /  0mm
01:40 33.7 °F /  0.9 °C 29.1 °F /  -1.6 °C 29.40in /  995.5hPa South 7.0mph /  11.3km/h 13.0mph /  20.9km/h 83% 0.00in /  0mm
01:45 33.7 °F /  0.9 °C 29.1 °F /  -1.6 °C 29.40in /  995.5hPa SSW 4.0mph /  6.4km/h 13.0mph /  20.9km/h 83% 0.00in /  0mm
01:50 33.7 °F /  0.9 °C 29.1 °F /  -1.6 °C 29.41in /  995.8hPa SSW 2.0mph /  3.2km/h 10.0mph /  16.1km/h 83% 0.00in /  0mm
01:55 33.7 °F /  0.9 °C 29.1 °F /  -1.6 °C 29.41in /  995.8hPa SW 1.0mph /  1.6km/h 10.0mph /  16.1km/h 83% 0.00in /  0mm
02:00 33.7 °F /  0.9 °C 29.1 °F /  -1.6 °C 29.41in /  995.8hPa SSW 4.0mph /  6.4km/h 11.0mph /  17.7km/h 83% 0.00in /  0mm
02:05 33.7 °F /  0.9 °C 29.1 °F /  -1.6 °C 29.41in /  995.8hPa SSW 4.0mph /  6.4km/h 11.0mph /  17.7km/h 83% 0.00in /  0mm
02:10 33.7 °F /  0.9 °C 29.1 °F /  -1.6 °C 29.40in /  995.5hPa South 6.0mph /  9.7km/h 13.0mph /  20.9km/h 83% 0.00in /  0mm
02:15 33.7 °F /  0.9 °C 29.1 °F /  -1.6 °C 29.40in /  995.5hPa South 6.0mph /  9.7km/h 13.0mph /  20.9km/h 83% 0.00in /  0mm
02:20 33.7 °F /  0.9 °C 29.1 °F /  -1.6 °C 29.40in /  995.5hPa SSW 5.0mph /  8km/h 11.0mph /  17.7km/h 83% 0.00in /  0mm
02:25 33.6 °F /  0.9 °C 29.0 °F /  -1.7 °C 29.40in /  995.5hPa SSW 2.0mph /  3.2km/h 9.0mph /  14.5km/h 83% 0.00in /  0mm
02:30 33.4 °F /  0.8 °C 28.8 °F /  -1.8 °C 29.39in /  995.1hPa South 7.0mph /  11.3km/h 12.0mph /  19.3km/h 83% 0.00in /  0mm
02:35 33.3 °F /  0.7 °C 29.0 °F /  -1.7 °C 29.40in /  995.5hPa South 5.0mph /  8km/h 12.0mph /  19.3km/h 84% 0.00in /  0mm
02:40 33.2 °F /  0.7 °C 28.9 °F /  -1.7 °C 29.40in /  995.5hPa SSW 4.0mph /  6.4km/h 10.0mph /  16.1km/h 84% 0.00in /  0mm
02:45 33.2 °F /  0.7 °C 28.9 °F /  -1.7 °C 29.40in /  995.5hPa SW 2.0mph /  3.2km/h 10.0mph /  16.1km/h 84% 0.00in /  0mm
02:50 33.2 °F /  0.7 °C 28.9 °F /  -1.7 °C 29.40in /  995.5hPa South 3.0mph /  4.8km/h 7.0mph /  11.3km/h 84% 0.00in /  0mm
02:55 33.1 °F /  0.6 °C 29.1 °F /  -1.6 °C 29.40in /  995.5hPa SSW 1.0mph /  1.6km/h 7.0mph /  11.3km/h 85% 0.00in /  0mm
03:00 33.2 °F /  0.7 °C 29.2 °F /  -1.6 °C 29.39in /  995.1hPa South 4.0mph /  6.4km/h 8.0mph /  12.9km/h 85% 0.00in /  0mm
03:05 33.2 °F /  0.7 °C 29.2 °F /  -1.6 °C 29.39in /  995.1hPa SSW 5.0mph /  8km/h 11.0mph /  17.7km/h 85% 0.00in /  0mm
03:10 33.4 °F /  0.8 °C 29.4 °F /  -1.4 °C 29.39in /  995.1hPa SSW 3.0mph /  4.8km/h 11.0mph /  17.7km/h 85% 0.00in /  0mm
03:15 33.4 °F /  0.8 °C 29.1 °F /  -1.6 °C 29.39in /  995.1hPa South 3.0mph /  4.8km/h 9.0mph /  14.5km/h 84% 0.00in /  0mm
03:20 33.4 °F /  0.8 °C 29.4 °F /  -1.4 °C 29.39in /  995.1hPa SSW 4.0mph /  6.4km/h 9.0mph /  14.5km/h 85% 0.00in /  0mm
03:25 33.5 °F /  0.8 °C 29.5 °F /  -1.4 °C 29.39in /  995.1hPa SSW 5.0mph /  8km/h 9.0mph /  14.5km/h 85% 0.00in /  0mm
03:30 33.7 °F /  0.9 °C 29.7 °F /  -1.3 °C 29.39in /  995.1hPa South 4.0mph /  6.4km/h 10.0mph /  16.1km/h 85% 0.00in /  0mm
03:35 33.8 °F /  1 °C 29.8 °F /  -1.2 °C 29.39in /  995.1hPa SSW 4.0mph /  6.4km/h 10.0mph /  16.1km/h 85% 0.00in /  0mm
03:40 34.1 °F /  1.2 °C 30.1 °F /  -1.1 °C 29.38in /  994.8hPa SSW 5.0mph /  8km/h 11.0mph /  17.7km/h 85% 0.00in /  0mm
03:45 34.3 °F /  1.3 °C 30.3 °F /  -0.9 °C 29.37in /  994.5hPa SSW 6.0mph /  9.7km/h 11.0mph /  17.7km/h 85% 0.00in /  0mm
03:50 34.4 °F /  1.3 °C 30.4 °F /  -0.9 °C 29.37in /  994.5hPa SSW 4.0mph /  6.4km/h 11.0mph /  17.7km/h 85% 0.00in /  0mm
03:55 34.4 °F /  1.3 °C 30.4 °F /  -0.9 °C 29.37in /  994.5hPa SSW 2.0mph /  3.2km/h 10.0mph /  16.1km/h 85% 0.00in /  0mm
04:00 34.4 °F /  1.3 °C 30.1 °F /  -1.1 °C 29.36in /  994.1hPa South 2.0mph /  3.2km/h 8.0mph /  12.9km/h 84% 0.00in /  0mm
04:05 34.4 °F /  1.3 °C 30.1 °F /  -1.1 °C 29.37in /  994.5hPa SW 2.0mph /  3.2km/h 8.0mph /  12.9km/h 84% 0.00in /  0mm
04:10 34.4 °F /  1.3 °C 30.4 °F /  -0.9 °C 29.37in /  994.5hPa South 2.0mph /  3.2km/h 9.0mph /  14.5km/h 85% 0.00in /  0mm
04:15 34.4 °F /  1.3 °C 30.4 °F /  -0.9 °C 29.36in /  994.1hPa South 3.0mph /  4.8km/h 9.0mph /  14.5km/h 85% 0.00in /  0mm
04:20 34.7 °F /  1.5 °C 30.7 °F /  -0.7 °C 29.36in /  994.1hPa SSW 4.0mph /  6.4km/h 8.0mph /  12.9km/h 85% 0.00in /  0mm
04:25 34.9 °F /  1.6 °C 30.9 °F /  -0.6 °C 29.36in /  994.1hPa SSW 4.0mph /  6.4km/h 8.0mph /  12.9km/h 85% 0.00in /  0mm
04:30 35.1 °F /  1.7 °C 31.0 °F /  -0.6 °C 29.35in /  993.8hPa SSW 3.0mph /  4.8km/h 8.0mph /  12.9km/h 85% 0.00in /  0mm
04:40 35.2 °F /  1.8 °C 30.9 °F /  -0.6 °C 29.35in /  993.8hPa SSW 1.0mph /  1.6km/h 8.0mph /  12.9km/h 84% 0.00in /  0mm
04:45 35.1 °F /  1.7 °C 30.8 °F /  -0.7 °C 29.35in /  993.8hPa Calm   3.0mph /  4.8km/h 84% 0.00in /  0mm
04:55 35.1 °F /  1.7 °C 30.8 °F /  -0.7 °C 29.34in /  993.5hPa SSE 1.0mph /  1.6km/h 4.0mph /  6.4km/h 84% 0.00in /  0mm
05:00 35.2 °F /  1.8 °C 31.1 °F /  -0.5 °C 29.34in /  993.5hPa South 3.0mph /  4.8km/h 8.0mph /  12.9km/h 85% 0.00in /  0mm
05:05 35.4 °F /  1.9 °C 31.1 °F /  -0.5 °C 29.33in /  993.1hPa South 3.0mph /  4.8km/h 8.0mph /  12.9km/h 84% 0.00in /  0mm
05:10 35.6 °F /  2 °C 31.2 °F /  -0.4 °C 29.33in /  993.1hPa South 3.0mph /  4.8km/h 9.0mph /  14.5km/h 84% 0.00in /  0mm
05:15 35.9 °F /  2.2 °C 31.5 °F /  -0.3 °C 29.33in /  993.1hPa South 3.0mph /  4.8km/h 9.0mph /  14.5km/h 84% 0.00in /  0mm
05:20 36.0 °F /  2.2 °C 31.6 °F /  -0.2 °C 29.33in /  993.1hPa South 4.0mph /  6.4km/h 8.0mph /  12.9km/h 84% 0.00in /  0mm
05:25 36.1 °F /  2.3 °C 31.4 °F /  -0.3 °C 29.32in /  992.8hPa SSW 1.0mph /  1.6km/h 8.0mph /  12.9km/h 83% 0.00in /  0mm
05:35 36.1 °F /  2.3 °C 31.4 °F /  -0.3 °C 29.32in /  992.8hPa South 2.0mph /  3.2km/h 6.0mph /  9.7km/h 83% 0.00in /  0mm
05:45 36.3 °F /  2.4 °C 31.6 °F /  -0.2 °C 29.32in /  992.8hPa South 4.0mph /  6.4km/h 9.0mph /  14.5km/h 83% 0.00in /  0mm
05:50 36.5 °F /  2.5 °C 31.8 °F /  -0.1 °C 29.31in /  992.4hPa South 5.0mph /  8km/h 8.0mph /  12.9km/h 83% 0.00in /  0mm
05:55 36.5 °F /  2.5 °C 31.5 °F /  -0.3 °C 29.31in /  992.4hPa South 5.0mph /  8km/h 10.0mph /  16.1km/h 82% 0.00in /  0mm
06:00 36.6 °F /  2.6 °C 31.6 °F /  -0.2 °C 29.30in /  992.1hPa South 4.0mph /  6.4km/h 11.0mph /  17.7km/h 82% 0.00in /  0mm
06:05 36.5 °F /  2.5 °C 31.5 °F /  -0.3 °C 29.30in /  992.1hPa SSE 2.0mph /  3.2km/h 11.0mph /  17.7km/h 82% 0.00in /  0mm
06:10 36.4 °F /  2.4 °C 31.4 °F /  -0.3 °C 29.30in /  992.1hPa ESE 2.0mph /  3.2km/h 6.0mph /  9.7km/h 82% 0.00in /  0mm
06:15 36.0 °F /  2.2 °C 30.7 °F /  -0.7 °C 29.30in /  992.1hPa East 3.0mph /  4.8km/h 6.0mph /  9.7km/h 81% 0.00in /  0mm
06:20 34.8 °F /  1.6 °C 29.9 °F /  -1.2 °C 29.29in /  991.8hPa East 1.0mph /  1.6km/h 7.0mph /  11.3km/h 82% 0.00in /  0mm
06:25 34.2 °F /  1.2 °C 29.9 °F /  -1.2 °C 29.28in /  991.4hPa East 1.0mph /  1.6km/h 7.0mph /  11.3km/h 84% 0.00in /  0mm
06:35 33.6 °F /  0.9 °C 29.6 °F /  -1.3 °C 29.27in /  991.1hPa East 2.0mph /  3.2km/h 6.0mph /  9.7km/h 85% 0.00in /  0mm
06:40 33.5 °F /  0.8 °C 29.8 °F /  -1.2 °C 29.27in /  991.1hPa ENE 2.0mph /  3.2km/h 6.0mph /  9.7km/h 86% 0.00in /  0mm
06:45 33.4 °F /  0.8 °C 29.7 °F /  -1.3 °C 29.26in /  990.7hPa ENE 2.0mph /  3.2km/h 6.0mph /  9.7km/h 86% 0.00in /  0mm
06:55 33.4 °F /  0.8 °C 29.7 °F /  -1.3 °C 29.25in /  990.4hPa ENE 1.0mph /  1.6km/h 7.0mph /  11.3km/h 86% 0.00in /  0mm
07:00 33.4 °F /  0.8 °C 29.7 °F /  -1.3 °C 29.24in /  990.1hPa ENE 3.0mph /  4.8km/h 7.0mph /  11.3km/h 86% 0.00in /  0mm
07:05 33.4 °F /  0.8 °C 29.7 °F /  -1.3 °C 29.24in /  990.1hPa East 2.0mph /  3.2km/h 7.0mph /  11.3km/h 86% 0.00in /  0mm
07:10 33.4 °F /  0.8 °C 29.7 °F /  -1.3 °C 29.24in /  990.1hPa Calm   7.0mph /  11.3km/h 86% 0.00in /  0mm
07:15 33.4 °F /  0.8 °C 29.7 °F /  -1.3 °C 29.24in /  990.1hPa ESE 1.0mph /  1.6km/h 5.0mph /  8km/h 86% 0.00in /  0mm
07:20 33.5 °F /  0.8 °C 29.8 °F /  -1.2 °C 29.23in /  989.7hPa ENE 1.0mph /  1.6km/h 5.0mph /  8km/h 86% 0.00in /  0mm
07:25 33.7 °F /  0.9 °C 30.0 °F /  -1.1 °C 29.23in /  989.7hPa East 2.0mph /  3.2km/h 5.0mph /  8km/h 86% 0.00in /  0mm
07:30 33.8 °F /  1 °C 30.1 °F /  -1.1 °C 29.22in /  989.4hPa ENE 2.0mph /  3.2km/h 5.0mph /  8km/h 86% 0.00in /  0mm
07:35 33.9 °F /  1.1 °C 30.2 °F /  -1 °C 29.22in /  989.4hPa East 1.0mph /  1.6km/h 5.0mph /  8km/h 86% 0.00in /  0mm
07:45 33.9 °F /  1.1 °C 30.2 °F /  -1 °C 29.20in /  988.7hPa ENE 3.0mph /  4.8km/h 6.0mph /  9.7km/h 86% 0.00in /  0mm
07:50 33.9 °F /  1.1 °C 30.2 °F /  -1 °C 29.19in /  988.4hPa Calm   6.0mph /  9.7km/h 86% 0.00in /  0mm
07:55 33.9 °F /  1.1 °C 30.2 °F /  -1 °C 29.20in /  988.7hPa East 2.0mph /  3.2km/h 4.0mph /  6.4km/h 86% 0.00in /  0mm
08:00 33.9 °F /  1.1 °C 29.9 °F /  -1.2 °C 29.20in /  988.7hPa ENE 2.0mph /  3.2km/h 7.0mph /  11.3km/h 85% 0.00in /  0mm
08:05 33.8 °F /  1 °C 29.8 °F /  -1.2 °C 29.19in /  988.4hPa ENE 1.0mph /  1.6km/h 7.0mph /  11.3km/h 85% 0.00in /  0mm
08:10 33.8 °F /  1 °C 29.8 °F /  -1.2 °C 29.20in /  988.7hPa Calm   4.0mph /  6.4km/h 85% 0.00in /  0mm
08:15 33.8 °F /  1 °C 29.8 °F /  -1.2 °C 29.19in /  988.4hPa East 2.0mph /  3.2km/h 5.0mph /  8km/h 85% 0.00in /  0mm
08:20 33.9 °F /  1.1 °C 30.2 °F /  -1 °C 29.19in /  988.4hPa East 1.0mph /  1.6km/h 5.0mph /  8km/h 86% 0.00in /  0mm
08:25 33.9 °F /  1.1 °C 30.2 °F /  -1 °C 29.18in /  988hPa Calm   5.0mph /  8km/h 86% 0.00in /  0mm
08:30 33.9 °F /  1.1 °C 30.4 °F /  -0.9 °C 29.19in /  988.4hPa Calm   3.0mph /  4.8km/h 87% 0.00in /  0mm
08:35 33.8 °F /  1 °C 30.3 °F /  -0.9 °C 29.19in /  988.4hPa Calm   3.0mph /  4.8km/h 87% 0.00in /  0mm
08:40 33.7 °F /  0.9 °C 30.2 °F /  -1 °C 29.19in /  988.4hPa Calm   2.0mph /  3.2km/h 87% 0.00in /  0mm
08:50 33.8 °F /  1 °C 30.6 °F /  -0.8 °C 29.18in /  988hPa Calm     88% 0.00in /  0mm
08:55 33.8 °F /  1 °C 30.6 °F /  -0.8 °C 29.18in /  988hPa SE 2.0mph /  3.2km/h 4.0mph /  6.4km/h 88% 0.00in /  0mm
09:00 34.3 °F /  1.3 °C 31.4 °F /  -0.3 °C 29.17in /  987.7hPa SE 1.0mph /  1.6km/h 5.0mph /  8km/h 89% 0.00in /  0mm
09:05 34.4 °F /  1.3 °C 31.5 °F /  -0.3 °C 29.17in /  987.7hPa Calm   5.0mph /  8km/h 89% 0.00in /  0mm
09:10 34.7 °F /  1.5 °C 31.8 °F /  -0.1 °C 29.17in /  987.7hPa Calm   2.0mph /  3.2km/h 89% 0.00in /  0mm
09:15 35.1 °F /  1.7 °C 32.5 °F /  0.3 °C 29.16in /  987.4hPa Calm   3.0mph /  4.8km/h 90% 0.00in /  0mm
09:20 35.3 °F /  1.8 °C 32.7 °F /  0.4 °C 29.16in /  987.4hPa SE 1.0mph /  1.6km/h 3.0mph /  4.8km/h 90% 0.00in /  0mm
09:25 35.2 °F /  1.8 °C 32.6 °F /  0.3 °C 29.16in /  987.4hPa Calm   3.0mph /  4.8km/h 90% 0.00in /  0mm
09:35 34.9 °F /  1.6 °C 32.3 °F /  0.2 °C 29.15in /  987hPa Calm   3.0mph /  4.8km/h 90% 0.00in /  0mm
09:40 34.9 °F /  1.6 °C 32.3 °F /  0.2 °C 29.14in /  986.7hPa Calm     90% 0.00in /  0mm
09:45 34.9 °F /  1.6 °C 32.3 °F /  0.2 °C 29.13in /  986.3hPa Calm     90% 0.00in /  0mm
09:50 35.0 °F /  1.7 °C 32.4 °F /  0.2 °C 29.13in /  986.3hPa Calm     90% 0.00in /  0mm
09:55 35.3 °F /  1.8 °C 32.7 °F /  0.4 °C 29.13in /  986.3hPa Calm     90% 0.00in /  0mm
10:00 35.4 °F /  1.9 °C 32.8 °F /  0.4 °C 29.13in /  986.3hPa Calm     90% 0.00in /  0mm
10:05 35.3 °F /  1.8 °C 32.7 °F /  0.4 °C 29.12in /  986hPa Calm     90% 0.00in /  0mm
10:10 35.2 °F /  1.8 °C 32.6 °F /  0.3 °C 29.12in /  986hPa Calm     90% 0.00in /  0mm
10:15 35.3 °F /  1.8 °C 32.7 °F /  0.4 °C 29.11in /  985.7hPa Calm     90% 0.00in /  0mm
10:20 35.3 °F /  1.8 °C 32.7 °F /  0.4 °C 29.10in /  985.3hPa SE 2.0mph /  3.2km/h 4.0mph /  6.4km/h 90% 0.00in /  0mm
10:25 35.3 °F /  1.8 °C 32.7 °F /  0.4 °C 29.10in /  985.3hPa SE 2.0mph /  3.2km/h 4.0mph /  6.4km/h 90% 0.00in /  0mm
10:30 35.4 °F /  1.9 °C 32.8 °F /  0.4 °C 29.10in /  985.3hPa SE 1.0mph /  1.6km/h 3.0mph /  4.8km/h 90% 0.00in /  0mm
10:35 35.8 °F /  2.1 °C 33.2 °F /  0.7 °C 29.09in /  985hPa SE 1.0mph /  1.6km/h 4.0mph /  6.4km/h 90% 0.00in /  0mm
10:40 36.0 °F /  2.2 °C 33.4 °F /  0.8 °C 29.09in /  985hPa SE 1.0mph /  1.6km/h 5.0mph /  8km/h 90% 0.00in /  0mm
10:45 36.8 °F /  2.7 °C 34.1 °F /  1.2 °C 29.08in /  984.6hPa SSE 3.0mph /  4.8km/h 5.0mph /  8km/h 90% 0.00in /  0mm
10:50 37.8 °F /  3.2 °C 34.6 °F /  1.4 °C 29.07in /  984.3hPa South 5.0mph /  8km/h 13.0mph /  20.9km/h 88% 0.00in /  0mm
10:55 38.5 °F /  3.6 °C 34.1 °F /  1.2 °C 29.06in /  984hPa SSW 8.0mph /  12.9km/h 13.0mph /  20.9km/h 84% 0.00in /  0mm
11:00 38.8 °F /  3.8 °C 34.1 °F /  1.2 °C 29.05in /  983.6hPa South 5.0mph /  8km/h 13.0mph /  20.9km/h 83% 0.00in /  0mm
11:05 38.9 °F /  3.8 °C 33.6 °F /  0.9 °C 29.05in /  983.6hPa South 5.0mph /  8km/h 11.0mph /  17.7km/h 81% 0.00in /  0mm
11:10 38.9 °F /  3.8 °C 33.6 °F /  0.9 °C 29.04in /  983.3hPa South 4.0mph /  6.4km/h 10.0mph /  16.1km/h 81% 0.00in /  0mm
11:15 39.3 °F /  4.1 °C 33.7 °F /  0.9 °C 29.04in /  983.3hPa South 4.0mph /  6.4km/h 9.0mph /  14.5km/h 80% 0.00in /  0mm
11:20 39.4 °F /  4.1 °C 33.4 °F /  0.8 °C 29.03in /  983hPa SSE 3.0mph /  4.8km/h 14.0mph /  22.5km/h 79% 0.00in /  0mm
11:25 39.4 °F /  4.1 °C 33.4 °F /  0.8 °C 29.03in /  983hPa SSW 3.0mph /  4.8km/h 14.0mph /  22.5km/h 79% 0.00in /  0mm
11:30 39.4 °F /  4.1 °C 33.4 °F /  0.8 °C 29.02in /  982.6hPa South 5.0mph /  8km/h 11.0mph /  17.7km/h 79% 0.00in /  0mm
11:35 39.3 °F /  4.1 °C 33.3 °F /  0.7 °C 29.02in /  982.6hPa South 2.0mph /  3.2km/h 11.0mph /  17.7km/h 79% 0.00in /  0mm
11:40 39.2 °F /  4 °C 32.9 °F /  0.5 °C 29.02in /  982.6hPa SSW 4.0mph /  6.4km/h 10.0mph /  16.1km/h 78% 0.00in /  0mm
11:45 38.9 °F /  3.8 °C 32.9 °F /  0.5 °C 29.02in /  982.6hPa South 4.0mph /  6.4km/h 12.0mph /  19.3km/h 79% 0.00in /  0mm
11:50 38.6 °F /  3.7 °C 32.7 °F /  0.4 °C 29.01in /  982.3hPa SSW 5.0mph /  8km/h 13.0mph /  20.9km/h 79% 0.00in /  0mm
11:55 38.0 °F /  3.3 °C 32.4 °F /  0.2 °C 29.01in /  982.3hPa SSW 7.0mph /  11.3km/h 13.0mph /  20.9km/h 80% 0.00in /  0mm
12:00 37.3 °F /  2.9 °C 32.3 °F /  0.2 °C 29.01in /  982.3hPa SSW 4.0mph /  6.4km/h 13.0mph /  20.9km/h 82% 0.00in /  0mm
12:05 37.0 °F /  2.8 °C 32.3 °F /  0.2 °C 29.01in /  982.3hPa SSW 3.0mph /  4.8km/h 12.0mph /  19.3km/h 83% 0.00in /  0mm
12:10 36.5 °F /  2.5 °C 32.1 °F /  0.1 °C 29.01in /  982.3hPa SW 4.0mph /  6.4km/h 7.0mph /  11.3km/h 84% 0.00in /  0mm
12:15 36.2 °F /  2.3 °C 31.8 °F /  -0.1 °C 29.01in /  982.3hPa SW 3.0mph /  4.8km/h 8.0mph /  12.9km/h 84% 0.00in /  0mm
12:20 35.8 °F /  2.1 °C 31.4 °F /  -0.3 °C 29.01in /  982.3hPa SW 6.0mph /  9.7km/h 9.0mph /  14.5km/h 84% 0.00in /  0mm
12:25 35.4 °F /  1.9 °C 31.3 °F /  -0.4 °C 29.01in /  982.3hPa SW 2.0mph /  3.2km/h 9.0mph /  14.5km/h 85% 0.00in /  0mm
12:30 35.0 °F /  1.7 °C 31.0 °F /  -0.6 °C 29.02in /  982.6hPa WSW 6.0mph /  9.7km/h 10.0mph /  16.1km/h 85% 0.00in /  0mm
12:35 34.4 °F /  1.3 °C 30.6 °F /  -0.8 °C 29.03in /  983hPa WSW 4.0mph /  6.4km/h 10.0mph /  16.1km/h 86% 0.00in /  0mm
12:40 33.9 °F /  1.1 °C 30.4 °F /  -0.9 °C 29.03in /  983hPa West 6.0mph /  9.7km/h 14.0mph /  22.5km/h 87% 0.00in /  0mm
12:45 33.5 °F /  0.8 °C 30.0 °F /  -1.1 °C 29.03in /  983hPa WSW 6.0mph /  9.7km/h 14.0mph /  22.5km/h 87% 0.00in /  0mm
12:50 33.2 °F /  0.7 °C 30.0 °F /  -1.1 °C 29.03in /  983hPa West 8.0mph /  12.9km/h 14.0mph /  22.5km/h 88% 0.00in /  0mm
12:55 32.7 °F /  0.4 °C 29.5 °F /  -1.4 °C 29.03in /  983hPa West 11.0mph /  17.7km/h 22.0mph /  35.4km/h 88% 0.00in /  0mm
13:00 32.3 °F /  0.2 °C 29.4 °F /  -1.4 °C 29.03in /  983hPa West 10.0mph /  16.1km/h 22.0mph /  35.4km/h 89% 0.00in /  0mm
13:05 32.0 °F /  0 °C 29.1 °F /  -1.6 °C 29.03in /  983hPa West 11.0mph /  17.7km/h 18.0mph /  29km/h 89% 0.00in /  0mm
13:10 31.9 °F /  -0.1 °C 29.3 °F /  -1.5 °C 29.03in /  983hPa WNW 7.0mph /  11.3km/h 17.0mph /  27.4km/h 90% 0.00in /  0mm
13:15 31.7 °F /  -0.2 °C 29.1 °F /  -1.6 °C 29.04in /  983.3hPa West 10.0mph /  16.1km/h 23.0mph /  37km/h 90% 0.00in /  0mm
13:20 31.6 °F /  -0.2 °C 29.0 °F /  -1.7 °C 29.04in /  983.3hPa West 8.0mph /  12.9km/h 23.0mph /  37km/h 90% 0.00in /  0mm
13:25 31.5 °F /  -0.3 °C 29.2 °F /  -1.6 °C 29.04in /  983.3hPa WNW 10.0mph /  16.1km/h 20.0mph /  32.2km/h 91% 0.00in /  0mm
13:35 31.3 °F /  -0.4 °C 29.0 °F /  -1.7 °C 29.04in /  983.3hPa West 7.0mph /  11.3km/h 15.0mph /  24.1km/h 91% 0.00in /  0mm
13:40 31.2 °F /  -0.4 °C 28.9 °F /  -1.7 °C 29.04in /  983.3hPa WNW 13.0mph /  20.9km/h 24.0mph /  38.6km/h 91% 0.00in /  0mm
13:45 30.8 °F /  -0.7 °C 28.5 °F /  -1.9 °C 29.05in /  983.6hPa West 11.0mph /  17.7km/h 24.0mph /  38.6km/h 91% 0.00in /  0mm
13:55 30.4 °F /  -0.9 °C 28.1 °F /  -2.2 °C 29.06in /  984hPa West 13.0mph /  20.9km/h 22.0mph /  35.4km/h 91% 0.00in /  0mm
14:00 30.2 °F /  -1 °C 28.2 °F /  -2.1 °C 29.06in /  984hPa West 14.0mph /  22.5km/h 23.0mph /  37km/h 92% 0.00in /  0mm
14:05 29.8 °F /  -1.2 °C 27.5 °F /  -2.5 °C 29.06in /  984hPa West 13.0mph /  20.9km/h 23.0mph /  37km/h 91% 0.00in /  0mm
14:10 29.2 °F /  -1.6 °C 26.9 °F /  -2.8 °C 29.07in /  984.3hPa West 14.0mph /  22.5km/h 26.0mph /  41.8km/h 91% 0.00in /  0mm
14:15 28.8 °F /  -1.8 °C 26.5 °F /  -3.1 °C 29.07in /  984.3hPa West 13.0mph /  20.9km/h 26.0mph /  41.8km/h 91% 0.00in /  0mm
14:20 28.7 °F /  -1.8 °C 26.4 °F /  -3.1 °C 29.08in /  984.6hPa West 9.0mph /  14.5km/h 23.0mph /  37km/h 91% 0.00in /  0mm
14:25 28.6 °F /  -1.9 °C 26.3 °F /  -3.2 °C 29.08in /  984.6hPa WSW 11.0mph /  17.7km/h 21.0mph /  33.8km/h 91% 0.00in /  0mm
14:30 28.5 °F /  -1.9 °C 26.2 °F /  -3.2 °C 29.08in /  984.6hPa West 10.0mph /  16.1km/h 26.0mph /  41.8km/h 91% 0.00in /  0mm
14:40 28.3 °F /  -2.1 °C 26.3 °F /  -3.2 °C 29.09in /  985hPa WSW 8.0mph /  12.9km/h 15.0mph /  24.1km/h 92% 0.00in /  0mm
14:50 28.1 °F /  -2.2 °C 26.1 °F /  -3.3 °C 29.09in /  985hPa West 8.0mph /  12.9km/h 15.0mph /  24.1km/h 92% 0.00in /  0mm
14:55 28.1 °F /  -2.2 °C 26.1 °F /  -3.3 °C 29.09in /  985hPa West 11.0mph /  17.7km/h 16.0mph /  25.7km/h 92% 0.00in /  0mm
15:00 27.9 °F /  -2.3 °C 25.9 °F /  -3.4 °C 29.10in /  985.3hPa WSW 9.0mph /  14.5km/h 22.0mph /  35.4km/h 92% 0.00in /  0mm
15:05 27.7 °F /  -2.4 °C 25.7 °F /  -3.5 °C 29.10in /  985.3hPa WSW 9.0mph /  14.5km/h 22.0mph /  35.4km/h 92% 0.00in /  0mm
15:10 27.5 °F /  -2.5 °C 25.5 °F /  -3.6 °C 29.10in /  985.3hPa West 9.0mph /  14.5km/h 22.0mph /  35.4km/h 92% 0.00in /  0mm
15:15 27.3 °F /  -2.6 °C 25.3 °F /  -3.7 °C 29.11in /  985.7hPa WSW 8.0mph /  12.9km/h 22.0mph /  35.4km/h 92% 0.00in /  0mm
15:20 27.2 °F /  -2.7 °C 25.2 °F /  -3.8 °C 29.11in /  985.7hPa West 10.0mph /  16.1km/h 20.0mph /  32.2km/h 92% 0.00in /  0mm
15:25 26.9 °F /  -2.8 °C 24.9 °F /  -3.9 °C 29.12in /  986hPa West 10.0mph /  16.1km/h 19.0mph /  30.6km/h 92% 0.00in /  0mm
15:30 26.7 °F /  -2.9 °C 24.4 °F /  -4.2 °C 29.12in /  986hPa WSW 10.0mph /  16.1km/h 20.0mph /  32.2km/h 91% 0.00in /  0mm
15:35 26.5 °F /  -3.1 °C 24.5 °F /  -4.2 °C 29.12in /  986hPa West 8.0mph /  12.9km/h 20.0mph /  32.2km/h 92% 0.00in /  0mm
15:40 26.3 °F /  -3.2 °C 24.0 °F /  -4.4 °C 29.12in /  986hPa WSW 10.0mph /  16.1km/h 20.0mph /  32.2km/h 91% 0.00in /  0mm
15:45 26.1 °F /  -3.3 °C 23.8 °F /  -4.6 °C 29.13in /  986.3hPa WSW 8.0mph /  12.9km/h 21.0mph /  33.8km/h 91% 0.00in /  0mm
15:50 25.9 °F /  -3.4 °C 23.6 °F /  -4.7 °C 29.13in /  986.3hPa WSW 8.0mph /  12.9km/h 21.0mph /  33.8km/h 91% 0.00in /  0mm
15:55 25.8 °F /  -3.4 °C 23.5 °F /  -4.7 °C 29.13in /  986.3hPa WSW 7.0mph /  11.3km/h 16.0mph /  25.7km/h 91% 0.00in /  0mm
16:00 25.8 °F /  -3.4 °C 23.5 °F /  -4.7 °C 29.13in /  986.3hPa WSW 8.0mph /  12.9km/h 15.0mph /  24.1km/h 91% 0.00in /  0mm
16:05 25.8 °F /  -3.4 °C 23.8 °F /  -4.6 °C 29.14in /  986.7hPa WSW 9.0mph /  14.5km/h 14.0mph /  22.5km/h 92% 0.00in /  0mm
16:10 25.8 °F /  -3.4 °C 23.8 °F /  -4.6 °C 29.14in /  986.7hPa WSW 9.0mph /  14.5km/h 15.0mph /  24.1km/h 92% 0.00in /  0mm
16:15 25.7 °F /  -3.5 °C 23.7 °F /  -4.6 °C 29.14in /  986.7hPa WSW 7.0mph /  11.3km/h 15.0mph /  24.1km/h 92% 0.00in /  0mm
16:20 25.6 °F /  -3.6 °C 23.3 °F /  -4.8 °C 29.14in /  986.7hPa WSW 7.0mph /  11.3km/h 14.0mph /  22.5km/h 91% 0.00in /  0mm
16:25 25.6 °F /  -3.6 °C 23.3 °F /  -4.8 °C 29.14in /  986.7hPa WSW 6.0mph /  9.7km/h 14.0mph /  22.5km/h 91% 0.00in /  0mm
16:30 25.6 °F /  -3.6 °C 23.3 °F /  -4.8 °C 29.15in /  987hPa SW 6.0mph /  9.7km/h 11.0mph /  17.7km/h 91% 0.00in /  0mm
16:35 25.4 °F /  -3.7 °C 23.1 °F /  -4.9 °C 29.15in /  987hPa SW 7.0mph /  11.3km/h 14.0mph /  22.5km/h 91% 0.00in /  0mm
16:40 25.3 °F /  -3.7 °C 23.0 °F /  -5 °C 29.15in /  987hPa WSW 8.0mph /  12.9km/h 18.0mph /  29km/h 91% 0.00in /  0mm
16:45 25.2 °F /  -3.8 °C 22.9 °F /  -5.1 °C 29.15in /  987hPa WSW 7.0mph /  11.3km/h 18.0mph /  29km/h 91% 0.00in /  0mm
16:50 25.2 °F /  -3.8 °C 22.9 °F /  -5.1 °C 29.15in /  987hPa WSW 7.0mph /  11.3km/h 16.0mph /  25.7km/h 91% 0.00in /  0mm
16:55 25.2 °F /  -3.8 °C 22.9 °F /  -5.1 °C 29.15in /  987hPa WSW 8.0mph /  12.9km/h 15.0mph /  24.1km/h 91% 0.00in /  0mm
17:00 25.2 °F /  -3.8 °C 22.9 °F /  -5.1 °C 29.15in /  987hPa SW 9.0mph /  14.5km/h 19.0mph /  30.6km/h 91% 0.00in /  0mm
17:05 25.3 °F /  -3.7 °C 23.0 °F /  -5 °C 29.16in /  987.4hPa SW 8.0mph /  12.9km/h 19.0mph /  30.6km/h 91% 0.00in /  0mm
17:10 25.4 °F /  -3.7 °C 23.1 °F /  -4.9 °C 29.16in /  987.4hPa WSW 4.0mph /  6.4km/h 14.0mph /  22.5km/h 91% 0.00in /  0mm
17:15 25.4 °F /  -3.7 °C 23.1 °F /  -4.9 °C 29.17in /  987.7hPa SW 7.0mph /  11.3km/h 12.0mph /  19.3km/h 91% 0.00in /  0mm
17:20 25.3 °F /  -3.7 °C 23.0 °F /  -5 °C 29.17in /  987.7hPa WSW 5.0mph /  8km/h 16.0mph /  25.7km/h 91% 0.00in /  0mm
17:25 25.3 °F /  -3.7 °C 23.0 °F /  -5 °C 29.17in /  987.7hPa SW 8.0mph /  12.9km/h 16.0mph /  25.7km/h 91% 0.00in /  0mm
17:30 25.1 °F /  -3.8 °C 22.8 °F /  -5.1 °C 29.18in /  988hPa SW 7.0mph /  11.3km/h 16.0mph /  25.7km/h 91% 0.00in /  0mm
17:35 24.9 °F /  -3.9 °C 22.6 °F /  -5.2 °C 29.18in /  988hPa WSW 6.0mph /  9.7km/h 16.0mph /  25.7km/h 91% 0.00in /  0mm
17:40 24.8 °F /  -4 °C 22.5 °F /  -5.3 °C 29.18in /  988hPa SW 4.0mph /  6.4km/h 15.0mph /  24.1km/h 91% 0.00in /  0mm
17:45 24.6 °F /  -4.1 °C 22.4 °F /  -5.3 °C 29.19in /  988.4hPa SW 7.0mph /  11.3km/h 15.0mph /  24.1km/h 91% 0.00in /  0mm
17:50 24.4 °F /  -4.2 °C 22.2 °F /  -5.4 °C 29.19in /  988.4hPa SW 6.0mph /  9.7km/h 14.0mph /  22.5km/h 91% 0.00in /  0mm
17:55 24.4 °F /  -4.2 °C 22.2 °F /  -5.4 °C 29.19in /  988.4hPa SW 7.0mph /  11.3km/h 14.0mph /  22.5km/h 91% 0.00in /  0mm
18:00 24.3 °F /  -4.3 °C 22.1 °F /  -5.5 °C 29.20in /  988.7hPa WSW 4.0mph /  6.4km/h 14.0mph /  22.5km/h 91% 0.00in /  0mm
18:05 24.3 °F /  -4.3 °C 22.1 °F /  -5.5 °C 29.20in /  988.7hPa WSW 7.0mph /  11.3km/h 12.0mph /  19.3km/h 91% 0.00in /  0mm
18:10 24.2 °F /  -4.3 °C 22.0 °F /  -5.6 °C 29.20in /  988.7hPa SW 5.0mph /  8km/h 12.0mph /  19.3km/h 91% 0.00in /  0mm
18:15 24.2 °F /  -4.3 °C 22.0 °F /  -5.6 °C 29.21in /  989.1hPa WSW 4.0mph /  6.4km/h 12.0mph /  19.3km/h 91% 0.00in /  0mm
18:20 24.1 °F /  -4.4 °C 21.9 °F /  -5.6 °C 29.21in /  989.1hPa SW 6.0mph /  9.7km/h 13.0mph /  20.9km/h 91% 0.00in /  0mm
18:25 24.0 °F /  -4.4 °C 21.8 °F /  -5.7 °C 29.21in /  989.1hPa SW 5.0mph /  8km/h 13.0mph /  20.9km/h 91% 0.00in /  0mm
18:30 23.9 °F /  -4.5 °C 21.7 °F /  -5.7 °C 29.22in /  989.4hPa SW 5.0mph /  8km/h 13.0mph /  20.9km/h 91% 0.00in /  0mm
18:35 23.8 °F /  -4.6 °C 21.6 °F /  -5.8 °C 29.22in /  989.4hPa SW 7.0mph /  11.3km/h 14.0mph /  22.5km/h 91% 0.00in /  0mm
18:45 23.7 °F /  -4.6 °C 21.5 °F /  -5.8 °C 29.23in /  989.7hPa SW 6.0mph /  9.7km/h 12.0mph /  19.3km/h 91% 0.00in /  0mm
18:50 23.7 °F /  -4.6 °C 21.5 °F /  -5.8 °C 29.23in /  989.7hPa WSW 7.0mph /  11.3km/h 12.0mph /  19.3km/h 91% 0.00in /  0mm
18:55 23.7 °F /  -4.6 °C 21.5 °F /  -5.8 °C 29.23in /  989.7hPa SW 7.0mph /  11.3km/h 14.0mph /  22.5km/h 91% 0.00in /  0mm
19:00 23.7 °F /  -4.6 °C 21.5 °F /  -5.8 °C 29.24in /  990.1hPa SW 6.0mph /  9.7km/h 14.0mph /  22.5km/h 91% 0.00in /  0mm
19:05 23.8 °F /  -4.6 °C 21.6 °F /  -5.8 °C 29.24in /  990.1hPa SW 8.0mph /  12.9km/h 12.0mph /  19.3km/h 91% 0.00in /  0mm
19:10 23.9 °F /  -4.5 °C 21.7 °F /  -5.7 °C 29.25in /  990.4hPa SW 6.0mph /  9.7km/h 12.0mph /  19.3km/h 91% 0.00in /  0mm
19:15 24.1 °F /  -4.4 °C 21.9 °F /  -5.6 °C 29.25in /  990.4hPa WSW 8.0mph /  12.9km/h 13.0mph /  20.9km/h 91% 0.00in /  0mm
19:20 24.2 °F /  -4.3 °C 22.0 °F /  -5.6 °C 29.26in /  990.7hPa SW 6.0mph /  9.7km/h 13.0mph /  20.9km/h 91% 0.00in /  0mm
19:25 24.3 °F /  -4.3 °C 22.1 °F /  -5.5 °C 29.26in /  990.7hPa SW 7.0mph /  11.3km/h 16.0mph /  25.7km/h 91% 0.00in /  0mm
19:35 24.4 °F /  -4.2 °C 22.2 °F /  -5.4 °C 29.27in /  991.1hPa SW 6.0mph /  9.7km/h 13.0mph /  20.9km/h 91% 0.00in /  0mm
19:40 24.5 °F /  -4.2 °C 22.3 °F /  -5.4 °C 29.28in /  991.4hPa WSW 7.0mph /  11.3km/h 13.0mph /  20.9km/h 91% 0.00in /  0mm
19:45 24.5 °F /  -4.2 °C 22.3 °F /  -5.4 °C 29.29in /  991.8hPa SW 6.0mph /  9.7km/h 15.0mph /  24.1km/h 91% 0.00in /  0mm
19:50 24.5 °F /  -4.2 °C 22.3 °F /  -5.4 °C 29.29in /  991.8hPa WSW 5.0mph /  8km/h 15.0mph /  24.1km/h 91% 0.00in /  0mm
19:55 24.6 °F /  -4.1 °C 22.4 °F /  -5.3 °C 29.30in /  992.1hPa WSW 5.0mph /  8km/h 11.0mph /  17.7km/h 91% 0.00in /  0mm
20:00 24.6 °F /  -4.1 °C 22.4 °F /  -5.3 °C 29.30in /  992.1hPa WSW 5.0mph /  8km/h 11.0mph /  17.7km/h 91% 0.00in /  0mm
20:05 24.6 °F /  -4.1 °C 22.4 °F /  -5.3 °C 29.31in /  992.4hPa WSW 5.0mph /  8km/h 10.0mph /  16.1km/h 91% 0.00in /  0mm
20:10 24.7 °F /  -4.1 °C 22.4 °F /  -5.3 °C 29.32in /  992.8hPa WSW 6.0mph /  9.7km/h 14.0mph /  22.5km/h 91% 0.00in /  0mm
20:15 24.9 °F /  -3.9 °C 22.6 °F /  -5.2 °C 29.32in /  992.8hPa WSW 6.0mph /  9.7km/h 14.0mph /  22.5km/h 91% 0.00in /  0mm
20:20 25.0 °F /  -3.9 °C 22.7 °F /  -5.2 °C 29.33in /  993.1hPa WSW 5.0mph /  8km/h 14.0mph /  22.5km/h 91% 0.00in /  0mm
20:25 25.1 °F /  -3.8 °C 22.8 °F /  -5.1 °C 29.34in /  993.5hPa WSW 3.0mph /  4.8km/h 12.0mph /  19.3km/h 91% 0.00in /  0mm
20:30 25.2 °F /  -3.8 °C 23.2 °F /  -4.9 °C 29.34in /  993.5hPa West 2.0mph /  3.2km/h 7.0mph /  11.3km/h 92% 0.00in /  0mm
20:40 25.6 °F /  -3.6 °C 23.6 °F /  -4.7 °C 29.35in /  993.8hPa West 6.0mph /  9.7km/h 10.0mph /  16.1km/h 92% 0.00in /  0mm
20:45 25.7 °F /  -3.5 °C 23.7 °F /  -4.6 °C 29.35in /  993.8hPa WNW 5.0mph /  8km/h 10.0mph /  16.1km/h 92% 0.00in /  0mm
20:50 25.8 °F /  -3.4 °C 23.8 °F /  -4.6 °C 29.36in /  994.1hPa West 7.0mph /  11.3km/h 13.0mph /  20.9km/h 92% 0.00in /  0mm
20:55 25.9 °F /  -3.4 °C 23.9 °F /  -4.5 °C 29.36in /  994.1hPa WNW 5.0mph /  8km/h 13.0mph /  20.9km/h 92% 0.00in /  0mm
21:00 26.0 °F /  -3.3 °C 24.0 °F /  -4.4 °C 29.36in /  994.1hPa WNW 3.0mph /  4.8km/h 10.0mph /  16.1km/h 92% 0.00in /  0mm
21:05 26.1 °F /  -3.3 °C 24.1 °F /  -4.4 °C 29.37in /  994.5hPa WNW 5.0mph /  8km/h 11.0mph /  17.7km/h 92% 0.00in /  0mm
21:10 26.2 °F /  -3.2 °C 24.2 °F /  -4.3 °C 29.37in /  994.5hPa WNW 5.0mph /  8km/h 11.0mph /  17.7km/h 92% 0.00in /  0mm
21:15 26.1 °F /  -3.3 °C 24.1 °F /  -4.4 °C 29.38in /  994.8hPa NW 5.0mph /  8km/h 10.0mph /  16.1km/h 92% 0.00in /  0mm
21:20 26.2 °F /  -3.2 °C 24.2 °F /  -4.3 °C 29.38in /  994.8hPa WNW 4.0mph /  6.4km/h 10.0mph /  16.1km/h 92% 0.00in /  0mm
21:25 26.1 °F /  -3.3 °C 23.8 °F /  -4.6 °C 29.38in /  994.8hPa WNW 5.0mph /  8km/h 15.0mph /  24.1km/h 91% 0.00in /  0mm
21:30 26.0 °F /  -3.3 °C 23.7 °F /  -4.6 °C 29.39in /  995.1hPa WNW 7.0mph /  11.3km/h 15.0mph /  24.1km/h 91% 0.00in /  0mm
21:35 25.7 °F /  -3.5 °C 23.4 °F /  -4.8 °C 29.40in /  995.5hPa WNW 6.0mph /  9.7km/h 13.0mph /  20.9km/h 91% 0.00in /  0mm
21:45 25.2 °F /  -3.8 °C 22.9 °F /  -5.1 °C 29.41in /  995.8hPa WNW 7.0mph /  11.3km/h 11.0mph /  17.7km/h 91% 0.00in /  0mm
21:50 25.0 °F /  -3.9 °C 22.7 °F /  -5.2 °C 29.41in /  995.8hPa WNW 4.0mph /  6.4km/h 11.0mph /  17.7km/h 91% 0.00in /  0mm
21:55 24.8 °F /  -4 °C 22.5 °F /  -5.3 °C 29.41in /  995.8hPa NW 4.0mph /  6.4km/h 11.0mph /  17.7km/h 91% 0.00in /  0mm
22:00 24.6 °F /  -4.1 °C 22.4 °F /  -5.3 °C 29.42in /  996.2hPa WNW 4.0mph /  6.4km/h 10.0mph /  16.1km/h 91% 0.00in /  0mm
22:05 24.3 °F /  -4.3 °C 21.8 °F /  -5.7 °C 29.42in /  996.2hPa WNW 7.0mph /  11.3km/h 11.0mph /  17.7km/h 90% 0.00in /  0mm
22:10 24.0 °F /  -4.4 °C 21.5 °F /  -5.8 °C 29.42in /  996.2hPa WNW 6.0mph /  9.7km/h 11.0mph /  17.7km/h 90% 0.00in /  0mm
22:15 23.7 °F /  -4.6 °C 21.2 °F /  -6 °C 29.43in /  996.5hPa WNW 8.0mph /  12.9km/h 13.0mph /  20.9km/h 90% 0.00in /  0mm
22:20 23.4 °F /  -4.8 °C 20.9 °F /  -6.2 °C 29.44in /  996.8hPa NW 9.0mph /  14.5km/h 15.0mph /  24.1km/h 90% 0.00in /  0mm
22:25 23.1 °F /  -4.9 °C 20.3 °F /  -6.5 °C 29.44in /  996.8hPa WNW 7.0mph /  11.3km/h 15.0mph /  24.1km/h 89% 0.00in /  0mm
22:30 22.8 °F /  -5.1 °C 20.0 °F /  -6.7 °C 29.45in /  997.2hPa WNW 6.0mph /  9.7km/h 15.0mph /  24.1km/h 89% 0.00in /  0mm
22:35 22.6 °F /  -5.2 °C 19.8 °F /  -6.8 °C 29.45in /  997.2hPa NW 7.0mph /  11.3km/h 12.0mph /  19.3km/h 89% 0.00in /  0mm
22:40 22.4 °F /  -5.3 °C 19.7 °F /  -6.8 °C 29.46in /  997.5hPa WNW 8.0mph /  12.9km/h 15.0mph /  24.1km/h 89% 0.00in /  0mm
22:45 22.1 °F /  -5.5 °C 19.4 °F /  -7 °C 29.46in /  997.5hPa WNW 7.0mph /  11.3km/h 15.0mph /  24.1km/h 89% 0.00in /  0mm
22:50 22.0 °F /  -5.6 °C 19.3 °F /  -7.1 °C 29.46in /  997.5hPa WNW 7.0mph /  11.3km/h 15.0mph /  24.1km/h 89% 0.00in /  0mm
22:55 22.0 °F /  -5.6 °C 19.0 °F /  -7.2 °C 29.47in /  997.9hPa WNW 9.0mph /  14.5km/h 18.0mph /  29km/h 88% 0.00in /  0mm
23:00 22.0 °F /  -5.6 °C 19.3 °F /  -7.1 °C 29.47in /  997.9hPa West 9.0mph /  14.5km/h 20.0mph /  32.2km/h 89% 0.00in /  0mm
23:05 22.0 °F /  -5.6 °C 19.0 °F /  -7.2 °C 29.48in /  998.2hPa WNW 8.0mph /  12.9km/h 20.0mph /  32.2km/h 88% 0.00in /  0mm
23:10 21.8 °F /  -5.7 °C 18.8 °F /  -7.3 °C 29.48in /  998.2hPa WNW 14.0mph /  22.5km/h 20.0mph /  32.2km/h 88% 0.00in /  0mm
23:15 21.6 °F /  -5.8 °C 18.6 °F /  -7.4 °C 29.48in /  998.2hPa WNW 11.0mph /  17.7km/h 20.0mph /  32.2km/h 88% 0.00in /  0mm
23:20 21.4 °F /  -5.9 °C 18.4 °F /  -7.6 °C 29.49in /  998.5hPa West 8.0mph /  12.9km/h 19.0mph /  30.6km/h 88% 0.00in /  0mm
23:25 21.3 °F /  -5.9 °C 18.3 °F /  -7.6 °C 29.49in /  998.5hPa WNW 11.0mph /  17.7km/h 18.0mph /  29km/h 88% 0.00in /  0mm
23:30 21.2 °F /  -6 °C 17.9 °F /  -7.8 °C 29.50in /  998.9hPa WNW 7.0mph /  11.3km/h 18.0mph /  29km/h 87% 0.00in /  0mm
23:35 21.1 °F /  -6.1 °C 17.8 °F /  -7.9 °C 29.50in /  998.9hPa WNW 8.0mph /  12.9km/h 17.0mph /  27.4km/h 87% 0.00in /  0mm
23:40 20.9 °F /  -6.2 °C 17.6 °F /  -8 °C 29.50in /  998.9hPa WNW 10.0mph /  16.1km/h 17.0mph /  27.4km/h 87% 0.00in /  0mm
23:45 20.8 °F /  -6.2 °C 17.5 °F /  -8.1 °C 29.51in /  999.2hPa WNW 9.0mph /  14.5km/h 17.0mph /  27.4km/h 87% 0.00in /  0mm
23:50 20.7 °F /  -6.3 °C 17.4 °F /  -8.1 °C 29.51in /  999.2hPa West 8.0mph /  12.9km/h 17.0mph /  27.4km/h 87% 0.00in /  0mm
23:55 20.5 °F /  -6.4 °C 17.2 °F /  -8.2 °C 29.51in /  999.2hPa West 8.0mph /  12.9km/h 17.0mph /  27.4km/h 87% 0.00in /  0mm
Westford Weather
Compliments of Weather Underground

 
 
Current Radar Loop:

Copyright © WestfordWeather.net 2007-2014. All rights reserved.